Flight Track Log - Related Links

Times and Time Zones

All times are in EDT time to prevent confusion due to time zone crossing. See the ELJ384 flight status page for this flight to view local times or setup timezone preferences in your user account.

Time Position Orientation Groundspeed Altitude Reporting Facility
EDT Latitude Longitude Course Direction KTS MPH feet Rate Location/Type
Thu 05:18:34 PM 43.8431 -92.4508 144° Southeast 241 277 5,500  Level Chicago Center
Thu 05:19:42 PM 43.7903 -92.3428 124° Southeast 297 342 12,600 6,046 Climbing Minneapolis Center
Thu 05:20:44 PM 43.7172 -92.2617 141° Southeast 323 372 18,600 4,887 Climbing Minneapolis Center
Thu 05:21:46 PM 43.6294 -92.1536 138° Southeast 373 429 22,700 3,339 Climbing Minneapolis Center
Thu 05:22:48 PM 43.5342 -92.0408 139° Southeast 456 525 25,500 2,806 Climbing Minneapolis Center
Thu 05:23:00 PM 43.8577 -92.4410 144° Southeast  Level FlightAware Approximate
Thu 05:23:50 PM 43.4294 -91.9175 139° Southeast 488 562 28,500  Level Minneapolis Center
Thu 05:24:52 PM 43.3144 -91.7792 139° Southeast 547 629 29,800 1,935 Climbing Minneapolis Center
Thu 05:25:54 PM 43.1989 -91.6422 139° Southeast 555 639 32,500 4,113 Climbing Minneapolis Center
Thu 05:26:56 PM 43.0925 -91.5156 139° Southeast 520 598 38,300 3,145 Climbing Minneapolis Center
Thu 05:27:58 PM 42.9708 -91.3722 139° Southeast 478 550 39,000 339 Climbing Minneapolis Center
Thu 05:29:00 PM 42.8586 -91.2408 139° Southeast 514 592 39,000  Level Minneapolis Center
Thu 05:30:02 PM 42.7467 -91.1117 140° Southeast 524 603 39,000  Level Minneapolis Center
Thu 05:31:04 PM 42.6356 -90.9831 140° Southeast 524 603 39,000  Level Minneapolis Center
Thu 05:32:06 PM 42.5258 -90.8547 139° Southeast 524 603 39,000  Level Minneapolis Center
Thu 05:33:28 PM 42.4331 -90.6158 118° Southeast 520 598 39,000  Level Chicago Center
Thu 05:34:30 PM 42.3758 -90.4381 113° Southeast 521 600 39,000  Level Chicago Center
Thu 05:35:33 PM 42.3094 -90.2661 118° Southeast 520 598 39,000  Level Chicago Center
Thu 05:36:35 PM 42.2297 -90.0603 118° Southeast 520 598 39,000  Level Chicago Center
Thu 05:37:37 PM 42.1706 -89.8992 116° Southeast 518 596 39,000 -532 Level Chicago Center
Thu 05:38:39 PM 42.1042 -89.7286 118° Southeast 518 596 37,900 -1,210 Descending Chicago Center
Thu 05:39:41 PM 42.0261 -89.5294 118° Southeast 508 585 36,500 -1,500 Descending Chicago Center
Thu 05:40:43 PM 41.9600 -89.3603 118° Southeast 509 586 34,800 -1,645 Descending Chicago Center
Thu 05:41:45 PM 41.8931 -89.1869 117° Southeast 520 598 33,100 -871 Descending Chicago Center
Thu 05:42:47 PM 41.8253 -89.0178 118° Southeast 520 598 33,000 -48 Descending Chicago Center
Thu 05:43:50 PM 41.7550 -88.8403 118° Southeast 535 616 33,000  Level Chicago Center
Thu 05:44:52 PM 41.6714 -88.6306 118° Southeast 535 616 33,000 -484 Level Chicago Center
Thu 05:45:54 PM 41.6008 -88.4558 118° Southeast 536 617 32,000 -1,210 Descending Chicago Center
Thu 05:46:56 PM 41.5192 -88.2844 122° Southeast 547 629 30,500 -1,403 Descending Chicago Center
Thu 05:47:58 PM 41.4117 -88.1458 136° Southeast 540 621 29,100 -726 Descending Chicago Center
Thu 05:49:00 PM 41.2936 -87.9981 137° Southeast 537 618 29,000 -48 Descending Chicago Center
Thu 05:50:02 PM 41.1897 -87.8647 136° Southeast 525 604 29,000  Level Chicago Center
Thu 05:51:04 PM 41.0831 -87.7303 136° Southeast 530 610 29,000  Level Chicago Center
Thu 05:52:07 PM 40.9772 -87.5947 136° Southeast 531 611 29,000  Level Chicago Center
Thu 05:53:09 PM 40.8489 -87.4336 136° Southeast 532 612 29,000  Level Chicago Center
Thu 05:54:11 PM 40.7417 -87.3031 137° Southeast 530 610 29,000 -576 Level Chicago Center
Thu 05:55:14 PM 40.6325 -87.1719 138° Southeast 531 611 27,800 -968 Descending Chicago Center
Thu 05:56:15 PM 40.5153 -87.0289 137° Southeast 526 605 27,000 -976 Descending Chicago Center
Thu 05:57:17 PM 40.4142 -86.9000 136° Southeast 511 588 25,800 -968 Descending Chicago Center
Thu 05:58:19 PM 40.3122 -86.7764 137° Southeast 502 578 25,000 -823 Descending Chicago Center
Thu 05:59:21 PM 40.1972 -86.6928 151° Southeast 474 545 24,100 -960 Descending Chicago Center
Thu 06:00:24 PM 40.0858 -86.5997 147° Southeast 476 548 23,000 -647 Descending Chicago Center
Thu 06:01:03 PM 39.9961 -86.5233 147° Southeast 476 548 23,000  Level Indianapolis Center
Thu 06:02:05 PM 39.8847 -86.4297 147° Southeast 476 548 23,000 -532 Level Indianapolis Center
Thu 06:03:07 PM 39.7944 -86.3169 136° Southeast 470 541 21,900 -1,887 Descending Indianapolis Center
Thu 06:04:09 PM 39.7383 -86.1492 113° Southeast 470 541 19,100 -2,710 Descending Indianapolis Center
Thu 06:05:11 PM 39.6875 -85.9944 113° Southeast 468 539 16,300 -2,419 Descending Indianapolis Center
Thu 06:06:13 PM 39.6389 -85.8531 114° Southeast 440 506 14,100 -1,632 Descending Indianapolis Center
Thu 06:07:16 PM 39.5933 -85.7153 113° Southeast 423 487 12,900 -1,200 Descending Indianapolis Center
Thu 06:08:18 PM 39.5489 -85.5786 113° Southeast 418 481 11,600 -871 Descending Indianapolis Center
Thu 06:09:20 PM 39.4892 -85.4236 116° Southeast 405 466 11,100 -435 Descending Indianapolis Center
Thu 06:10:22 PM 39.4206 -85.3081 128° Southeast 407 468 10,700 -774 Descending Indianapolis Center
Thu 06:11:24 PM 39.3642 -85.2056 125° Southeast 361 415 9,500 -1,306 Descending Indianapolis Center
Thu 06:12:26 PM 39.3408 -85.0978 106° East 321 369 8,000 -1,452 Descending Indianapolis Center
Thu 06:13:28 PM 39.3181 -84.9906 105° East 312 359 6,500 -1,403 Descending Indianapolis Center
Thu 06:14:30 PM 39.2994 -84.8911 104° East 295 339 5,100 -677 Descending Indianapolis Center
Thu 06:15:32 PM 39.2792 -84.7869 104° East 283 326 5,100 -484 Level Indianapolis Center
Thu 06:16:34 PM 39.2350 -84.7089 126° Southeast 280 322 4,100 -1,018 Descending Indianapolis Center
Thu 06:18:17 PM 39.1333 -84.6667 162° South 157 181 2,300 -920 Descending Cincinnati TRACON
Thu 06:19:17 PM 39.1000 -84.6667 180° South 133 153 1,600 -700 Descending Cincinnati TRACON
Thu 06:21:00 PM 39.0488 -84.6678 180° South  Level Estimated
Thu 06:28:00 PM 39.0488 -84.6678 North  Level Estimated

Login

Don't have an account? Register now (free) for customized features, flight alerts, and more!